createdAt,value
2022-10-24T00:00:40.172Z,3.30
2022-10-24T00:01:41.650Z,3.07
2022-10-24T00:02:43.241Z,3.37
2022-10-24T00:03:44.944Z,3.67
2022-10-24T00:04:46.300Z,2.90
2022-10-24T00:05:48.094Z,3.27
2022-10-24T00:06:49.480Z,3.13
2022-10-24T00:07:50.915Z,2.97
2022-10-24T00:08:52.276Z,3.07
2022-10-24T00:09:53.704Z,2.90
2022-10-24T00:10:55.016Z,3.03
2022-10-24T00:11:56.314Z,2.83
2022-10-24T00:12:57.641Z,3.00
2022-10-24T00:13:59.616Z,2.77
2022-10-24T00:15:00.914Z,3.03
2022-10-24T00:16:02.248Z,2.80
2022-10-24T00:17:04.131Z,3.23
2022-10-24T00:18:05.486Z,2.97
2022-10-24T00:19:07.173Z,2.60
2022-10-24T00:20:08.868Z,2.30
2022-10-24T00:21:10.494Z,3.13
2022-10-24T00:22:11.903Z,2.97
2022-10-24T00:23:13.717Z,2.73
2022-10-24T00:24:15.307Z,3.03
2022-10-24T00:25:16.687Z,2.83
2022-10-24T00:26:18.095Z,2.90
2022-10-24T00:27:19.837Z,2.63
2022-10-24T00:28:21.171Z,2.87
2022-10-24T00:29:22.539Z,2.50
2022-10-24T00:30:23.878Z,2.80
2022-10-24T00:31:25.268Z,2.60
2022-10-24T00:32:26.747Z,3.17
2022-10-24T00:33:28.303Z,2.50
2022-10-24T00:34:29.653Z,2.67
2022-10-24T00:35:31.440Z,2.40
2022-10-24T00:36:32.845Z,2.73
2022-10-24T00:37:34.964Z,2.73
2022-10-24T00:38:36.312Z,2.47
2022-10-24T00:39:37.634Z,2.50
2022-10-24T00:40:38.984Z,2.73
2022-10-24T00:41:44.388Z,2.20
2022-10-24T00:42:46.401Z,2.73
2022-10-24T00:43:47.818Z,2.43
2022-10-24T00:44:52.076Z,2.87
2022-10-24T00:45:57.630Z,2.47
2022-10-24T00:47:02.095Z,2.47
2022-10-24T00:48:10.248Z,2.47
2022-10-24T00:49:15.971Z,2.97
2022-10-24T00:50:17.289Z,2.67
2022-10-24T00:51:18.623Z,2.57
2022-10-24T00:52:22.286Z,2.50
2022-10-24T00:53:25.297Z,3.17
2022-10-24T00:54:26.795Z,2.67
2022-10-24T00:55:29.165Z,2.80
2022-10-24T00:56:34.378Z,3.20
2022-10-24T00:57:53.353Z,2.57
2022-10-24T00:58:55.869Z,2.90
2022-10-24T01:00:00.432Z,3.03
2022-10-24T01:01:02.768Z,2.70
2022-10-24T01:02:04.453Z,2.67
2022-10-24T01:03:06.010Z,2.73
2022-10-24T01:04:07.714Z,3.00
2022-10-24T01:05:09.884Z,2.50
2022-10-24T01:06:20.074Z,3.00
2022-10-24T01:07:27.457Z,2.50
2022-10-24T01:08:42.114Z,2.70
2022-10-24T01:09:43.849Z,2.70
2022-10-24T01:11:04.092Z,2.83
2022-10-24T01:12:17.695Z,2.13
2022-10-24T01:13:19.179Z,2.53
2022-10-24T01:14:31.801Z,2.73
2022-10-24T01:15:38.988Z,2.87
2022-10-24T01:16:51.433Z,2.20
2022-10-24T01:17:59.952Z,3.03
2022-10-24T01:19:07.253Z,2.83
2022-10-24T01:20:08.628Z,2.70
2022-10-24T01:21:13.107Z,2.40
2022-10-24T01:22:19.863Z,2.93
2022-10-24T01:23:36.761Z,2.77
2022-10-24T01:24:41.496Z,2.43
2022-10-24T01:25:42.889Z,3.07
2022-10-24T01:26:50.505Z,2.97
2022-10-24T01:28:06.966Z,3.47
2022-10-24T01:29:08.300Z,2.80
2022-10-24T01:30:13.371Z,2.83
2022-10-24T01:31:24.121Z,2.80
2022-10-24T01:32:25.570Z,2.50
2022-10-24T01:33:30.490Z,2.60
2022-10-24T01:34:34.854Z,2.93
2022-10-24T01:35:43.136Z,2.60
2022-10-24T01:36:51.488Z,2.83
2022-10-24T01:38:07.436Z,3.20
2022-10-24T01:39:11.380Z,3.27
2022-10-24T01:40:15.714Z,3.00
2022-10-24T01:41:21.160Z,2.60
2022-10-24T01:42:24.877Z,2.43
2022-10-24T01:43:33.093Z,2.73
2022-10-24T01:44:38.439Z,2.83
2022-10-24T01:45:42.280Z,2.80
2022-10-24T01:46:50.709Z,2.87
2022-10-24T01:47:54.440Z,2.50
2022-10-24T01:49:01.019Z,2.70
2022-10-24T01:50:04.533Z,2.67
2022-10-24T01:51:07.377Z,2.60
2022-10-24T01:52:11.318Z,2.53
2022-10-24T01:53:13.339Z,2.83
2022-10-24T01:54:15.254Z,3.43
2022-10-24T01:55:16.946Z,2.83
2022-10-24T01:56:18.544Z,2.70
2022-10-24T01:57:20.266Z,2.60
2022-10-24T01:58:22.271Z,2.83
2022-10-24T01:59:28.199Z,3.10
2022-10-24T02:00:30.016Z,3.13
2022-10-24T02:01:32.070Z,3.07
2022-10-24T02:02:41.658Z,3.43
2022-10-24T02:03:48.293Z,2.63
2022-10-24T02:05:02.485Z,3.00
2022-10-24T02:06:10.924Z,2.77
2022-10-24T02:07:14.027Z,2.80
2022-10-24T02:08:18.481Z,2.97
2022-10-24T02:09:20.743Z,3.27
2022-10-24T02:10:32.975Z,2.47
2022-10-24T02:11:34.756Z,2.47
2022-10-24T02:12:37.781Z,2.90
2022-10-24T02:13:58.065Z,2.40
2022-10-24T02:15:04.966Z,2.40
2022-10-24T02:16:06.734Z,2.73
2022-10-24T02:17:08.408Z,2.63
2022-10-24T02:18:10.407Z,3.13
2022-10-24T02:19:13.661Z,2.70
2022-10-24T02:20:15.232Z,2.67
2022-10-24T02:21:23.314Z,2.53
2022-10-24T02:22:41.392Z,3.10
2022-10-24T02:23:47.448Z,2.80
2022-10-24T02:25:09.057Z,2.70
2022-10-24T02:26:13.191Z,2.83
2022-10-24T02:27:17.369Z,3.23
2022-10-24T02:28:23.044Z,3.37
2022-10-24T02:29:44.631Z,2.90
2022-10-24T02:30:50.317Z,2.90
2022-10-24T02:31:54.756Z,3.00
2022-10-24T02:32:57.805Z,2.43
2022-10-24T02:34:00.102Z,2.63
2022-10-24T02:35:02.695Z,2.73
2022-10-24T02:36:04.668Z,2.90
2022-10-24T02:37:06.795Z,2.73
2022-10-24T02:38:14.288Z,2.50
2022-10-24T02:39:16.229Z,3.10
2022-10-24T02:40:19.097Z,2.90
2022-10-24T02:41:23.050Z,2.63
2022-10-24T02:42:25.520Z,2.40
2022-10-24T02:43:27.457Z,2.83
2022-10-24T02:44:29.304Z,2.63
2022-10-24T02:45:30.722Z,2.90
2022-10-24T02:46:32.543Z,3.20
2022-10-24T02:47:34.548Z,2.93
2022-10-24T02:48:38.474Z,2.63
2022-10-24T02:49:40.001Z,3.20
2022-10-24T02:50:42.606Z,2.97
2022-10-24T02:51:44.945Z,2.50
2022-10-24T02:52:46.751Z,3.20
2022-10-24T02:53:49.614Z,2.83
2022-10-24T02:54:51.107Z,3.03
2022-10-24T02:55:52.664Z,2.77
2022-10-24T02:56:57.177Z,2.73
2022-10-24T02:57:58.556Z,2.63
2022-10-24T02:58:59.950Z,2.80
2022-10-24T03:00:01.488Z,2.80
2022-10-24T03:01:02.933Z,2.50
2022-10-24T03:02:04.368Z,2.50
2022-10-24T03:03:05.659Z,2.90
2022-10-24T03:04:06.986Z,2.60
2022-10-24T03:05:08.594Z,2.77
2022-10-24T03:06:10.189Z,2.73
2022-10-24T03:07:11.579Z,2.77
2022-10-24T03:08:13.093Z,2.63
2022-10-24T03:09:14.466Z,2.70
2022-10-24T03:10:15.863Z,2.20
2022-10-24T03:11:17.344Z,2.97
2022-10-24T03:12:18.978Z,3.17
2022-10-24T03:13:20.392Z,2.60
2022-10-24T03:14:21.791Z,2.57
2022-10-24T03:15:23.253Z,2.53
2022-10-24T03:16:25.668Z,2.90
2022-10-24T03:17:27.001Z,2.30
2022-10-24T03:18:28.478Z,2.40
2022-10-24T03:19:29.843Z,2.67
2022-10-24T03:20:31.327Z,2.70
2022-10-24T03:21:32.902Z,2.53
2022-10-24T03:22:34.310Z,2.47
2022-10-24T03:23:35.641Z,3.03
2022-10-24T03:24:44.256Z,2.40
2022-10-24T03:25:56.778Z,2.93
2022-10-24T03:26:58.332Z,3.40
2022-10-24T03:27:59.693Z,2.17
2022-10-24T03:29:01.010Z,2.57
2022-10-24T03:30:02.560Z,2.63
2022-10-24T03:31:03.974Z,2.53
2022-10-24T03:32:06.380Z,2.20
2022-10-24T03:33:07.691Z,2.53
2022-10-24T03:34:08.999Z,2.60
2022-10-24T03:35:13.275Z,2.80
2022-10-24T03:36:15.781Z,2.90
2022-10-24T03:37:17.218Z,2.63
2022-10-24T03:38:18.555Z,2.90
2022-10-24T03:39:19.868Z,2.60
2022-10-24T03:40:21.248Z,2.50
2022-10-24T03:41:22.593Z,3.70
2022-10-24T03:42:23.913Z,2.20
2022-10-24T03:43:25.354Z,2.73
2022-10-24T03:44:26.813Z,2.70
2022-10-24T03:45:28.217Z,2.27
2022-10-24T03:46:29.535Z,2.40
2022-10-24T03:47:30.865Z,2.13
2022-10-24T03:48:32.556Z,2.90
2022-10-24T03:49:33.911Z,2.70
2022-10-24T03:50:35.199Z,2.23
2022-10-24T03:51:36.602Z,2.70
2022-10-24T03:52:38.018Z,3.07
2022-10-24T03:53:39.407Z,1.87
2022-10-24T03:54:40.793Z,2.53
2022-10-24T03:55:42.170Z,2.60
2022-10-24T03:56:43.874Z,2.43
2022-10-24T03:57:45.343Z,2.13
2022-10-24T03:58:46.795Z,2.30
2022-10-24T03:59:48.203Z,2.50
2022-10-24T04:00:49.521Z,2.40
2022-10-24T04:01:51.117Z,2.60
2022-10-24T04:02:52.507Z,2.37
2022-10-24T04:03:53.863Z,2.53
2022-10-24T04:04:55.217Z,2.33
2022-10-24T04:05:56.577Z,1.93
2022-10-24T04:06:59.942Z,2.70
2022-10-24T04:08:01.493Z,2.30
2022-10-24T04:09:03.151Z,2.47
2022-10-24T04:10:05.027Z,2.30
2022-10-24T04:11:06.620Z,2.50
2022-10-24T04:12:09.426Z,2.10
2022-10-24T04:13:10.970Z,2.30
2022-10-24T04:14:12.659Z,2.50
2022-10-24T04:15:14.053Z,2.43
2022-10-24T04:16:15.484Z,2.90
2022-10-24T04:17:16.873Z,2.57
2022-10-24T04:18:18.382Z,2.20
2022-10-24T04:19:19.902Z,2.27
2022-10-24T04:20:22.962Z,2.50
2022-10-24T04:21:24.850Z,2.07
2022-10-24T04:22:26.332Z,2.30
2022-10-24T04:23:27.917Z,1.93
2022-10-24T04:24:29.582Z,2.53
2022-10-24T04:25:30.934Z,2.53
2022-10-24T04:26:32.304Z,2.40
2022-10-24T04:27:34.406Z,2.53
2022-10-24T04:28:35.804Z,2.70
2022-10-24T04:29:37.206Z,2.67
2022-10-24T04:30:38.707Z,2.30
2022-10-24T04:31:40.134Z,2.67
2022-10-24T04:32:41.733Z,1.90
2022-10-24T04:33:43.295Z,2.43
2022-10-24T04:34:44.637Z,2.43
2022-10-24T04:35:49.694Z,2.30
2022-10-24T04:36:51.000Z,2.20
2022-10-24T04:37:52.822Z,2.50
2022-10-24T04:38:54.257Z,2.60
2022-10-24T04:39:55.664Z,2.20
2022-10-24T04:40:57.365Z,2.53
2022-10-24T04:41:58.789Z,2.23
2022-10-24T04:43:00.249Z,1.90
2022-10-24T04:44:01.700Z,2.50
2022-10-24T04:45:03.129Z,2.33
2022-10-24T04:46:04.568Z,2.30
2022-10-24T04:47:05.945Z,2.50
2022-10-24T04:48:07.369Z,2.27
2022-10-24T04:49:10.106Z,2.40
2022-10-24T04:50:11.533Z,2.53
2022-10-24T04:51:12.913Z,2.53
2022-10-24T04:52:14.420Z,2.43
2022-10-24T04:53:15.821Z,3.00
2022-10-24T04:54:17.121Z,2.57
2022-10-24T04:55:18.510Z,2.67
2022-10-24T04:56:19.885Z,2.40
2022-10-24T04:57:21.306Z,1.90
2022-10-24T04:58:22.673Z,2.63
2022-10-24T04:59:24.004Z,2.37
2022-10-24T05:00:25.389Z,2.40
2022-10-24T05:01:26.929Z,2.40
2022-10-24T05:02:28.472Z,2.23
2022-10-24T05:03:29.927Z,2.20
2022-10-24T05:04:31.488Z,2.33
2022-10-24T05:05:32.805Z,2.30
2022-10-24T05:06:34.092Z,2.37
2022-10-24T05:07:35.741Z,2.73
2022-10-24T05:08:37.110Z,2.40
2022-10-24T05:09:38.471Z,2.43
2022-10-24T05:10:39.861Z,2.30
2022-10-24T05:11:41.961Z,2.30
2022-10-24T05:12:44.624Z,2.20
2022-10-24T05:13:46.386Z,2.20
2022-10-24T05:14:47.748Z,2.60
2022-10-24T05:15:49.151Z,2.17
2022-10-24T05:16:50.590Z,2.30
2022-10-24T05:17:51.926Z,2.90
2022-10-24T05:18:53.256Z,2.20
2022-10-24T05:19:54.580Z,2.53
2022-10-24T05:20:57.467Z,2.60
2022-10-24T05:21:58.801Z,2.47
2022-10-24T05:23:00.152Z,2.57
2022-10-24T05:24:01.799Z,2.83
2022-10-24T05:25:03.517Z,2.47
2022-10-24T05:26:04.867Z,2.90
2022-10-24T05:27:06.289Z,2.80
2022-10-24T05:28:07.574Z,2.60
2022-10-24T05:29:08.910Z,2.27
2022-10-24T05:30:10.555Z,2.30
2022-10-24T05:31:11.994Z,2.67
2022-10-24T05:32:13.341Z,2.60
2022-10-24T05:33:14.750Z,2.87
2022-10-24T05:34:16.224Z,2.73
2022-10-24T05:35:17.598Z,2.30
2022-10-24T05:36:19.245Z,2.53
2022-10-24T05:37:20.812Z,2.57
2022-10-24T05:38:22.809Z,2.80
2022-10-24T05:39:24.141Z,3.00
2022-10-24T05:40:25.576Z,2.60
2022-10-24T05:41:26.985Z,2.57
2022-10-24T05:42:28.379Z,2.90
2022-10-24T05:43:29.705Z,2.60
2022-10-24T05:44:31.149Z,3.10
2022-10-24T05:45:32.633Z,2.00
2022-10-24T05:46:33.981Z,2.23
2022-10-24T05:47:35.630Z,2.83
2022-10-24T05:48:37.105Z,2.50
2022-10-24T05:49:38.565Z,2.60
2022-10-24T05:50:39.945Z,2.53
2022-10-24T05:51:41.326Z,3.27
2022-10-24T05:52:46.214Z,2.20
2022-10-24T05:53:48.731Z,2.20
2022-10-24T05:55:02.439Z,2.33
2022-10-24T05:56:07.786Z,3.07
2022-10-24T05:57:09.271Z,2.70
2022-10-24T05:58:10.643Z,2.30
2022-10-24T05:59:12.048Z,3.10
2022-10-24T06:00:14.612Z,2.43
2022-10-24T06:01:16.034Z,2.53
2022-10-24T06:02:18.822Z,2.83
2022-10-24T06:03:20.332Z,2.90
2022-10-24T06:04:21.692Z,2.73
2022-10-24T06:05:23.144Z,3.07
2022-10-24T06:06:24.541Z,3.20
2022-10-24T06:07:25.879Z,2.50
2022-10-24T06:08:27.276Z,2.73
2022-10-24T06:09:28.632Z,2.80
2022-10-24T06:10:30.048Z,3.30
2022-10-24T06:11:31.420Z,2.70
2022-10-24T06:12:33.248Z,2.70
2022-10-24T06:13:36.228Z,3.13
2022-10-24T06:14:38.564Z,3.20
2022-10-24T06:15:41.220Z,2.93
2022-10-24T06:16:42.855Z,2.57
2022-10-24T06:17:44.230Z,3.10
2022-10-24T06:18:45.582Z,3.03
2022-10-24T06:20:52.819Z,3.47
2022-10-24T06:21:57.652Z,2.90
2022-10-24T06:22:59.596Z,3.33
2022-10-24T06:24:01.498Z,3.40
2022-10-24T06:25:03.150Z,3.47
2022-10-24T06:26:11.369Z,2.70
2022-10-24T06:27:13.304Z,3.23
2022-10-24T06:28:15.121Z,3.27
2022-10-24T06:29:16.454Z,3.20
2022-10-24T06:30:17.912Z,3.30
2022-10-24T06:31:20.623Z,3.50
2022-10-24T06:32:22.057Z,3.13
2022-10-24T06:33:23.421Z,3.23
2022-10-24T06:34:24.850Z,3.10
2022-10-24T06:35:26.372Z,3.03
2022-10-24T06:36:30.637Z,2.77
2022-10-24T06:37:33.577Z,3.10
2022-10-24T06:38:35.819Z,2.77
2022-10-24T06:39:37.143Z,2.83
2022-10-24T06:40:40.830Z,3.33
2022-10-24T06:41:42.133Z,3.23
2022-10-24T06:42:48.600Z,3.47
2022-10-24T06:43:50.127Z,3.20
2022-10-24T06:44:51.520Z,3.30
2022-10-24T06:45:52.903Z,3.17
2022-10-24T06:46:54.288Z,3.00
2022-10-24T06:47:56.210Z,3.30
2022-10-24T06:48:57.840Z,3.30
2022-10-24T06:49:59.155Z,3.40
2022-10-24T06:51:00.499Z,3.40
2022-10-24T06:52:01.904Z,3.33
2022-10-24T06:53:03.288Z,3.57
2022-10-24T06:54:04.748Z,3.63
2022-10-24T06:55:06.205Z,3.50
2022-10-24T06:56:07.942Z,3.20
2022-10-24T06:57:09.724Z,3.20
2022-10-24T06:58:11.029Z,3.23
2022-10-24T06:59:14.611Z,2.90
2022-10-24T07:00:16.224Z,3.57
2022-10-24T07:01:19.068Z,3.20
2022-10-24T07:02:20.710Z,3.20
2022-10-24T07:03:22.177Z,3.40
2022-10-24T07:04:23.593Z,2.90
2022-10-24T07:05:25.034Z,3.17
2022-10-24T07:06:28.049Z,3.77
2022-10-24T07:07:29.367Z,3.27
2022-10-24T07:08:30.744Z,4.17
2022-10-24T07:09:33.390Z,3.67
2022-10-24T07:10:40.897Z,4.40
2022-10-24T07:11:42.557Z,4.57
2022-10-24T07:12:44.251Z,4.20
2022-10-24T07:13:45.910Z,3.67
2022-10-24T07:14:48.224Z,4.27
2022-10-24T07:15:54.173Z,4.07
2022-10-24T07:16:55.554Z,3.47
2022-10-24T07:17:56.888Z,4.07
2022-10-24T07:18:58.254Z,4.80
2022-10-24T07:19:59.607Z,6.23
2022-10-24T07:21:02.433Z,4.63
2022-10-24T07:22:03.833Z,4.37
2022-10-24T07:23:05.155Z,3.90
2022-10-24T07:24:06.914Z,4.10
2022-10-24T07:25:08.611Z,3.97
2022-10-24T07:26:11.799Z,4.00
2022-10-24T07:27:13.088Z,3.40
2022-10-24T07:28:14.436Z,4.00
2022-10-24T07:29:15.747Z,4.00
2022-10-24T07:30:17.605Z,3.50
2022-10-24T07:31:19.726Z,3.53
2022-10-24T07:32:21.518Z,3.30
2022-10-24T07:33:23.002Z,3.47
2022-10-24T07:34:24.373Z,2.87
2022-10-24T07:35:25.979Z,3.33
2022-10-24T07:36:28.027Z,3.53
2022-10-24T07:37:29.329Z,3.30
2022-10-24T07:38:30.669Z,4.20
2022-10-24T07:39:32.328Z,3.53
2022-10-24T07:40:33.661Z,3.57
2022-10-24T07:41:37.017Z,3.50
2022-10-24T07:42:38.398Z,3.90
2022-10-24T07:43:39.870Z,5.53
2022-10-24T07:44:41.563Z,3.97
2022-10-24T07:45:45.544Z,4.13
2022-10-24T07:46:48.997Z,4.47
2022-10-24T07:47:50.304Z,3.70
2022-10-24T07:48:51.968Z,3.77
2022-10-24T07:49:53.275Z,3.63
2022-10-24T07:50:54.674Z,3.80
2022-10-24T07:51:56.012Z,3.93
2022-10-24T07:52:57.395Z,3.30
2022-10-24T07:53:58.899Z,3.73
2022-10-24T07:55:00.289Z,3.20
2022-10-24T07:56:02.129Z,3.30
2022-10-24T07:57:03.633Z,4.40
2022-10-24T07:58:05.093Z,5.00
2022-10-24T07:59:09.351Z,5.00
2022-10-24T08:00:11.292Z,4.70
2022-10-24T08:01:17.302Z,4.27
2022-10-24T08:02:18.730Z,4.23
2022-10-24T08:03:20.056Z,3.60
2022-10-24T08:04:21.393Z,3.53
2022-10-24T08:05:23.129Z,3.33
2022-10-24T08:06:25.955Z,3.40
2022-10-24T08:07:27.524Z,3.87
2022-10-24T08:08:36.402Z,4.23
2022-10-24T08:09:39.300Z,3.77
2022-10-24T08:10:40.615Z,4.30
2022-10-24T08:11:41.972Z,3.17
2022-10-24T08:12:43.641Z,3.07
2022-10-24T08:13:45.400Z,3.50
2022-10-24T08:14:47.237Z,3.43
2022-10-24T08:15:48.586Z,3.50
2022-10-24T08:16:49.873Z,3.33
2022-10-24T08:17:51.428Z,3.10
2022-10-24T08:18:53.983Z,3.10
2022-10-24T08:19:55.341Z,3.37
2022-10-24T08:20:57.913Z,3.30
2022-10-24T08:21:59.876Z,3.00
2022-10-24T08:23:01.190Z,2.60
2022-10-24T08:24:02.720Z,3.30
2022-10-24T08:25:05.947Z,3.17
2022-10-24T08:26:07.653Z,3.20
2022-10-24T08:27:08.941Z,3.50
2022-10-24T08:28:10.242Z,4.33
2022-10-24T08:29:12.182Z,3.83
2022-10-24T08:30:13.941Z,3.50
2022-10-24T08:31:16.730Z,3.67
2022-10-24T08:32:18.136Z,3.53
2022-10-24T08:33:19.677Z,3.23
2022-10-24T08:34:21.892Z,3.30
2022-10-24T08:35:23.677Z,2.97
2022-10-24T08:36:26.443Z,2.90
2022-10-24T08:37:27.949Z,2.70
2022-10-24T08:38:29.734Z,3.50
2022-10-24T08:39:31.061Z,3.77
2022-10-24T08:40:32.401Z,3.47
2022-10-24T08:41:41.219Z,2.97
2022-10-24T08:42:43.161Z,3.30
2022-10-24T08:43:44.683Z,3.03
2022-10-24T08:44:47.255Z,3.20
2022-10-24T08:45:48.541Z,3.43
2022-10-24T08:46:56.654Z,3.30
2022-10-24T08:48:02.419Z,2.90
2022-10-24T08:49:27.386Z,3.00
2022-10-24T08:50:30.604Z,3.47
2022-10-24T08:51:48.321Z,3.23
2022-10-24T08:52:52.597Z,3.37
2022-10-24T08:53:56.076Z,3.13
2022-10-24T08:55:03.263Z,3.60
2022-10-24T08:56:09.035Z,3.40
2022-10-24T08:57:16.448Z,3.00
2022-10-24T08:58:25.334Z,3.07
2022-10-24T08:59:28.541Z,3.40
2022-10-24T09:00:31.799Z,2.87
2022-10-24T09:01:38.513Z,3.27
2022-10-24T09:02:42.939Z,2.90
2022-10-24T09:04:01.613Z,2.77
2022-10-24T09:05:07.169Z,3.43
2022-10-24T09:06:19.586Z,3.57
2022-10-24T09:07:21.750Z,2.73
2022-10-24T09:08:23.903Z,2.73
2022-10-24T09:09:29.667Z,3.03
2022-10-24T09:10:53.789Z,3.03
2022-10-24T09:12:08.689Z,3.20
2022-10-24T09:13:14.164Z,3.30
2022-10-24T09:14:17.059Z,3.07
2022-10-24T09:15:24.921Z,2.23
2022-10-24T09:16:27.671Z,3.20
2022-10-24T09:17:34.368Z,2.57
2022-10-24T09:18:40.363Z,2.80
2022-10-24T09:19:44.815Z,2.50
2022-10-24T09:20:46.221Z,2.60
2022-10-24T09:21:48.238Z,2.30
2022-10-24T09:22:49.640Z,2.60
2022-10-24T09:23:51.623Z,2.40
2022-10-24T09:24:58.198Z,2.40
2022-10-24T09:25:59.574Z,2.40
2022-10-24T09:27:04.392Z,2.70
2022-10-24T09:28:06.224Z,2.47
2022-10-24T09:29:08.927Z,2.50
2022-10-24T09:30:17.651Z,2.60
2022-10-24T09:31:22.720Z,2.40
2022-10-24T09:32:31.195Z,2.33
2022-10-24T09:33:35.811Z,2.50
2022-10-24T09:34:37.141Z,2.13
2022-10-24T09:35:38.794Z,2.53
2022-10-24T09:36:40.223Z,2.60
2022-10-24T09:37:44.649Z,2.70
2022-10-24T09:38:49.144Z,2.47
2022-10-24T09:40:04.207Z,2.37
2022-10-24T09:41:06.862Z,2.50
2022-10-24T09:42:21.801Z,3.40
2022-10-24T09:43:32.610Z,2.63
2022-10-24T09:44:36.377Z,2.80
2022-10-24T09:45:41.971Z,2.70
2022-10-24T09:46:45.790Z,2.60
2022-10-24T09:47:53.615Z,2.23
2022-10-24T09:49:02.789Z,2.03
2022-10-24T09:50:05.383Z,2.67
2022-10-24T09:51:07.334Z,2.90
2022-10-24T09:52:16.668Z,2.57
2022-10-24T09:53:21.070Z,2.40
2022-10-24T09:54:26.952Z,2.53
2022-10-24T09:55:31.909Z,2.50
2022-10-24T09:56:38.643Z,2.40
2022-10-24T09:57:40.408Z,3.03
2022-10-24T09:58:42.410Z,2.40
2022-10-24T09:59:58.258Z,2.57
2022-10-24T10:01:07.761Z,2.50
2022-10-24T10:02:21.236Z,2.70
2022-10-24T10:03:23.897Z,2.77
2022-10-24T10:04:25.755Z,3.10
2022-10-24T10:05:27.514Z,2.70
2022-10-24T10:06:28.876Z,2.90
2022-10-24T10:07:36.363Z,2.70
2022-10-24T10:08:37.707Z,3.30
2022-10-24T10:09:46.762Z,2.40
2022-10-24T10:11:08.201Z,2.80
2022-10-24T10:12:25.716Z,2.60
2022-10-24T10:13:27.660Z,2.70
2022-10-24T10:14:29.754Z,2.77
2022-10-24T10:15:35.219Z,2.63
2022-10-24T10:16:37.731Z,2.63
2022-10-24T10:17:49.079Z,3.00
2022-10-24T10:18:50.434Z,2.50
2022-10-24T10:19:52.544Z,2.60
2022-10-24T10:21:13.936Z,2.88
2022-10-24T10:22:24.334Z,2.70
2022-10-24T10:23:26.892Z,2.60
2022-10-24T10:24:57.681Z,2.33
2022-10-24T10:26:13.701Z,2.30
2022-10-24T10:27:24.686Z,2.00
2022-10-24T10:28:26.004Z,3.50
2022-10-24T10:29:27.662Z,2.97
2022-10-24T10:30:29.421Z,2.77
2022-10-24T10:31:36.867Z,2.73
2022-10-24T10:32:56.057Z,2.53
2022-10-24T10:34:20.335Z,2.47
2022-10-24T10:35:28.736Z,3.40
2022-10-24T10:36:43.215Z,3.40
2022-10-24T10:37:49.651Z,3.43
2022-10-24T10:39:00.014Z,2.80
2022-10-24T10:40:07.133Z,2.50
2022-10-24T10:41:15.684Z,2.73
2022-10-24T10:42:35.825Z,2.77
2022-10-24T10:43:40.089Z,2.37
2022-10-24T10:45:00.281Z,2.60
2022-10-24T10:46:12.071Z,3.00
2022-10-24T10:47:35.237Z,2.63
2022-10-24T10:48:55.235Z,2.80
2022-10-24T10:49:58.340Z,3.10
2022-10-24T10:51:08.965Z,2.50
2022-10-24T10:52:18.380Z,2.37
2022-10-24T10:53:24.539Z,2.17
2022-10-24T10:54:41.062Z,2.37
2022-10-24T10:55:45.540Z,2.30
2022-10-24T10:57:17.800Z,2.47
2022-10-24T10:58:19.097Z,3.33
2022-10-24T10:59:42.348Z,3.10
2022-10-24T11:00:55.969Z,3.47
2022-10-24T11:02:23.694Z,3.40
2022-10-24T11:03:37.961Z,2.87
2022-10-24T11:04:42.397Z,2.93
2022-10-24T11:05:49.885Z,2.70
2022-10-24T11:07:05.930Z,3.30
2022-10-24T11:08:18.554Z,3.07
2022-10-24T11:09:44.006Z,3.60
2022-10-24T11:10:50.091Z,3.57
2022-10-24T11:12:27.065Z,3.37
2022-10-24T11:13:37.483Z,2.83
2022-10-24T11:14:41.032Z,3.23
2022-10-24T11:15:44.522Z,3.25
2022-10-24T11:16:46.079Z,2.83
2022-10-24T11:17:54.184Z,2.92
2022-10-24T11:18:59.143Z,2.53
2022-10-24T11:20:05.005Z,2.80
2022-10-24T11:21:07.596Z,3.47
2022-10-24T11:22:14.159Z,2.95
2022-10-24T11:23:19.715Z,3.35
2022-10-24T11:24:23.244Z,4.38
2022-10-24T11:25:27.662Z,4.40
2022-10-24T11:26:32.576Z,4.05
2022-10-24T11:27:40.559Z,5.57
2022-10-24T11:28:41.854Z,3.60
2022-10-24T11:29:48.664Z,2.72
2022-10-24T11:31:07.800Z,2.92
2022-10-24T11:32:18.955Z,2.60
2022-10-24T11:33:22.163Z,2.70
2022-10-24T11:34:36.363Z,2.78
2022-10-24T11:35:42.303Z,3.08
2022-10-24T11:36:53.352Z,2.75
2022-10-24T11:38:00.168Z,2.60
2022-10-24T11:39:07.502Z,2.97
2022-10-24T11:40:20.549Z,2.70
2022-10-24T11:41:26.221Z,3.40
2022-10-24T11:42:34.013Z,3.33
2022-10-24T11:43:37.806Z,3.17
2022-10-24T11:44:59.556Z,3.03
2022-10-24T11:46:22.138Z,2.88
2022-10-24T11:47:23.572Z,2.63
2022-10-24T11:48:40.726Z,2.58
2022-10-24T11:49:45.932Z,2.00
2022-10-24T11:50:59.613Z,2.72
2022-10-24T11:52:05.899Z,2.97
2022-10-24T11:53:22.114Z,2.60
2022-10-24T11:54:31.172Z,2.40
2022-10-24T11:55:39.015Z,2.22
2022-10-24T11:56:55.230Z,2.40
2022-10-24T11:57:58.648Z,2.72
2022-10-24T11:59:01.389Z,2.55
2022-10-24T12:00:03.290Z,3.20
2022-10-24T12:01:16.076Z,2.42
2022-10-24T12:02:30.932Z,2.22
2022-10-24T12:03:45.368Z,2.60
2022-10-24T12:04:52.667Z,2.78
2022-10-24T12:06:12.940Z,2.97
2022-10-24T12:07:25.678Z,2.47
2022-10-24T12:08:37.417Z,2.50
2022-10-24T12:09:38.816Z,2.35
2022-10-24T12:10:42.754Z,2.67
2022-10-24T12:12:03.017Z,2.50
2022-10-24T12:13:07.453Z,3.15
2022-10-24T12:14:21.109Z,3.05
2022-10-24T12:15:25.149Z,2.92
2022-10-24T12:16:51.374Z,2.78
2022-10-24T12:17:59.043Z,3.05
2022-10-24T12:19:02.860Z,2.60
2022-10-24T12:20:06.692Z,2.58
2022-10-24T12:21:13.848Z,2.35
2022-10-24T12:22:18.345Z,2.78
2022-10-24T12:23:22.452Z,2.90
2022-10-24T12:24:30.368Z,2.63
2022-10-24T12:25:35.236Z,2.60
2022-10-24T12:26:36.720Z,2.38
2022-10-24T12:27:39.518Z,2.33
2022-10-24T12:28:41.528Z,2.33
2022-10-24T12:29:43.139Z,2.60
2022-10-24T12:31:04.458Z,2.72
2022-10-24T12:32:23.167Z,2.55
2022-10-24T12:33:26.623Z,2.60
2022-10-24T12:34:28.001Z,2.78
2022-10-24T12:35:31.308Z,2.95
2022-10-24T12:36:56.423Z,2.63
2022-10-24T12:37:57.789Z,2.67
2022-10-24T12:38:59.184Z,2.50
2022-10-24T12:40:20.454Z,2.88
2022-10-24T12:41:33.894Z,2.40
2022-10-24T12:42:35.203Z,2.90
2022-10-24T12:43:37.610Z,2.70
2022-10-24T12:44:41.076Z,2.60
2022-10-24T12:45:42.526Z,2.90
2022-10-24T12:46:43.826Z,2.53
2022-10-24T12:48:10.595Z,2.60
2022-10-24T12:49:17.736Z,3.00
2022-10-24T12:50:21.990Z,2.90
2022-10-24T12:51:32.594Z,2.80
2022-10-24T12:52:34.017Z,3.15
2022-10-24T12:53:36.753Z,2.90
2022-10-24T12:54:42.011Z,3.15
2022-10-24T12:55:43.313Z,2.60
2022-10-24T12:56:51.166Z,2.92
2022-10-24T12:57:52.594Z,2.80
2022-10-24T12:58:58.403Z,2.60
2022-10-24T13:00:00.947Z,2.80
2022-10-24T13:01:07.079Z,3.00
2022-10-24T13:02:11.688Z,2.80
2022-10-24T13:03:21.928Z,2.63
2022-10-24T13:04:35.186Z,3.25
2022-10-24T13:05:46.330Z,2.70
2022-10-24T13:06:47.704Z,2.95
2022-10-24T13:07:55.699Z,2.92
2022-10-24T13:09:03.505Z,2.95
2022-10-24T13:10:23.458Z,2.80
2022-10-24T13:11:37.377Z,3.42
2022-10-24T13:12:40.210Z,2.50
2022-10-24T13:14:19.985Z,2.90
2022-10-24T13:15:39.517Z,2.40
2022-10-24T13:16:43.441Z,3.15
2022-10-24T13:17:57.119Z,2.90
2022-10-24T13:19:10.177Z,2.83
2022-10-24T13:20:18.935Z,2.75
2022-10-24T13:21:22.821Z,3.30
2022-10-24T13:22:33.133Z,2.90
2022-10-24T13:23:35.794Z,3.00
2022-10-24T13:24:38.370Z,3.20
2022-10-24T13:25:40.379Z,2.35
2022-10-24T13:26:43.563Z,2.75
2022-10-24T13:27:44.888Z,2.88
2022-10-24T13:28:46.314Z,2.30
2022-10-24T13:29:51.771Z,2.67
2022-10-24T13:30:59.005Z,2.45
2022-10-24T13:32:06.372Z,3.00
2022-10-24T13:33:26.874Z,3.05
2022-10-24T13:34:30.524Z,3.05
2022-10-24T13:35:32.055Z,2.88
2022-10-24T13:36:34.352Z,2.92
2022-10-24T13:37:35.633Z,2.72
2022-10-24T13:38:41.643Z,2.85
2022-10-24T13:39:51.280Z,2.85
2022-10-24T13:40:52.685Z,2.38
2022-10-24T13:42:02.849Z,2.85
2022-10-24T13:43:07.785Z,2.38
2022-10-24T13:44:12.295Z,2.53
2022-10-24T13:45:20.774Z,2.60
2022-10-24T13:46:28.120Z,2.53
2022-10-24T13:47:32.014Z,2.70
2022-10-24T13:48:34.844Z,2.50
2022-10-24T13:49:36.111Z,2.63
2022-10-24T13:50:41.599Z,2.63
2022-10-24T13:51:45.853Z,2.50
2022-10-24T13:52:57.723Z,2.83
2022-10-24T13:54:02.191Z,2.83
2022-10-24T13:55:23.839Z,3.60
2022-10-24T13:56:25.520Z,2.80
2022-10-24T13:57:31.190Z,2.60
2022-10-24T13:58:44.308Z,3.20
2022-10-24T13:59:53.428Z,2.33
2022-10-24T14:01:02.896Z,2.90
2022-10-24T14:02:06.198Z,2.28
2022-10-24T14:03:15.549Z,3.17
2022-10-24T14:04:16.950Z,3.03
2022-10-24T14:05:19.884Z,3.08
2022-10-24T14:06:25.624Z,3.10
2022-10-24T14:07:28.721Z,2.50
2022-10-24T14:08:32.225Z,2.65
2022-10-24T14:09:43.539Z,2.42
2022-10-24T14:10:44.938Z,2.92
2022-10-24T14:11:47.807Z,4.18
2022-10-24T14:12:51.946Z,3.10
2022-10-24T14:13:55.474Z,2.65
2022-10-24T14:14:58.749Z,2.83
2022-10-24T14:16:01.788Z,2.08
2022-10-24T14:17:06.671Z,2.55
2022-10-24T14:18:14.331Z,2.53
2022-10-24T14:19:17.792Z,2.20
2022-10-24T14:20:26.817Z,2.30
2022-10-24T14:21:28.622Z,2.78
2022-10-24T14:22:35.486Z,2.47